sensor_id;sensor_type;location;lat;lon;timestamp;P1;durP1;ratioP1;P2;durP2;ratioP2
8050;SDS011;4068;42.158;24.732;2022-12-11T00:01:07;56.65;;;30.23;;
8050;SDS011;4068;42.158;24.732;2022-12-11T00:03:36;55.42;;;28.63;;
8050;SDS011;4068;42.158;24.732;2022-12-11T00:06:05;58.90;;;29.00;;
8050;SDS011;4068;42.158;24.732;2022-12-11T00:08:36;61.33;;;28.98;;
8050;SDS011;4068;42.158;24.732;2022-12-11T00:11:02;73.25;;;31.90;;
8050;SDS011;4068;42.158;24.732;2022-12-11T00:13:28;65.30;;;31.08;;
8050;SDS011;4068;42.158;24.732;2022-12-11T00:15:53;65.95;;;31.90;;
8050;SDS011;4068;42.158;24.732;2022-12-11T00:18:19;64.03;;;31.60;;
8050;SDS011;4068;42.158;24.732;2022-12-11T00:20:45;62.60;;;31.00;;
8050;SDS011;4068;42.158;24.732;2022-12-11T00:23:10;59.10;;;29.63;;
8050;SDS011;4068;42.158;24.732;2022-12-11T00:25:45;58.78;;;29.75;;
8050;SDS011;4068;42.158;24.732;2022-12-11T00:28:13;67.00;;;29.60;;
8050;SDS011;4068;42.158;24.732;2022-12-11T00:30:40;57.75;;;30.17;;
8050;SDS011;4068;42.158;24.732;2022-12-11T00:33:07;68.90;;;31.67;;
8050;SDS011;4068;42.158;24.732;2022-12-11T00:35:36;55.13;;;27.67;;
8050;SDS011;4068;42.158;24.732;2022-12-11T00:38:06;61.42;;;30.98;;
8050;SDS011;4068;42.158;24.732;2022-12-11T00:40:32;58.22;;;29.40;;
8050;SDS011;4068;42.158;24.732;2022-12-11T00:42:59;58.80;;;29.73;;
8050;SDS011;4068;42.158;24.732;2022-12-11T00:45:25;55.92;;;29.63;;
8050;SDS011;4068;42.158;24.732;2022-12-11T00:47:50;50.60;;;27.92;;
8050;SDS011;4068;42.158;24.732;2022-12-11T00:50:15;57.40;;;29.42;;
8050;SDS011;4068;42.158;24.732;2022-12-11T00:52:41;66.65;;;29.75;;
8050;SDS011;4068;42.158;24.732;2022-12-11T00:55:06;58.30;;;28.58;;
8050;SDS011;4068;42.158;24.732;2022-12-11T00:57:32;50.97;;;28.08;;
8050;SDS011;4068;42.158;24.732;2022-12-11T00:59:57;61.35;;;26.50;;
8050;SDS011;4068;42.158;24.732;2022-12-11T01:02:23;49.88;;;26.98;;
8050;SDS011;4068;42.158;24.732;2022-12-11T01:04:48;46.47;;;24.70;;
8050;SDS011;4068;42.158;24.732;2022-12-11T01:07:14;45.92;;;25.33;;
8050;SDS011;4068;42.158;24.732;2022-12-11T01:09:39;45.13;;;23.60;;
8050;SDS011;4068;42.158;24.732;2022-12-11T01:12:23;52.30;;;24.65;;
8050;SDS011;4068;42.158;24.732;2022-12-11T01:14:48;53.13;;;25.15;;
8050;SDS011;4068;42.158;24.732;2022-12-11T01:17:14;41.63;;;22.77;;
8050;SDS011;4068;42.158;24.732;2022-12-11T01:19:40;49.95;;;23.85;;
8050;SDS011;4068;42.158;24.732;2022-12-11T01:22:05;52.92;;;24.35;;
8050;SDS011;4068;42.158;24.732;2022-12-11T01:24:31;52.38;;;23.73;;
8050;SDS011;4068;42.158;24.732;2022-12-11T01:26:57;47.13;;;24.77;;
8050;SDS011;4068;42.158;24.732;2022-12-11T01:29:22;41.33;;;20.65;;
8050;SDS011;4068;42.158;24.732;2022-12-11T01:31:48;42.83;;;23.40;;
8050;SDS011;4068;42.158;24.732;2022-12-11T01:34:13;47.78;;;22.15;;
8050;SDS011;4068;42.158;24.732;2022-12-11T01:36:38;47.25;;;23.75;;
8050;SDS011;4068;42.158;24.732;2022-12-11T01:39:04;47.13;;;23.08;;
8050;SDS011;4068;42.158;24.732;2022-12-11T01:41:29;45.58;;;22.88;;
8050;SDS011;4068;42.158;24.732;2022-12-11T01:46:25;47.35;;;22.15;;
8050;SDS011;4068;42.158;24.732;2022-12-11T01:48:51;56.92;;;26.00;;
8050;SDS011;4068;42.158;24.732;2022-12-11T01:51:18;53.42;;;24.88;;
8050;SDS011;4068;42.158;24.732;2022-12-11T01:53:55;51.80;;;24.08;;
8050;SDS011;4068;42.158;24.732;2022-12-11T01:56:24;44.38;;;22.65;;
8050;SDS011;4068;42.158;24.732;2022-12-11T01:58:53;48.85;;;23.13;;
8050;SDS011;4068;42.158;24.732;2022-12-11T02:01:31;48.88;;;24.55;;
8050;SDS011;4068;42.158;24.732;2022-12-11T02:04:01;53.45;;;24.10;;
8050;SDS011;4068;42.158;24.732;2022-12-11T02:06:38;50.85;;;24.30;;
8050;SDS011;4068;42.158;24.732;2022-12-11T02:09:09;55.85;;;25.70;;
8050;SDS011;4068;42.158;24.732;2022-12-11T02:17:13;80.97;;;39.30;;
8050;SDS011;4068;42.158;24.732;2022-12-11T02:25:09;53.28;;;27.67;;
8050;SDS011;4068;42.158;24.732;2022-12-11T02:28:08;67.65;;;37.70;;
8050;SDS011;4068;42.158;24.732;2022-12-11T02:30:43;69.78;;;37.45;;
8050;SDS011;4068;42.158;24.732;2022-12-11T02:33:13;81.10;;;43.47;;
8050;SDS011;4068;42.158;24.732;2022-12-11T02:35:41;61.13;;;34.42;;
8050;SDS011;4068;42.158;24.732;2022-12-11T02:38:16;64.85;;;32.10;;
8050;SDS011;4068;42.158;24.732;2022-12-11T02:40:46;85.10;;;45.67;;
8050;SDS011;4068;42.158;24.732;2022-12-11T02:43:15;85.30;;;45.20;;
8050;SDS011;4068;42.158;24.732;2022-12-11T02:45:43;88.63;;;47.47;;
8050;SDS011;4068;42.158;24.732;2022-12-11T02:48:10;78.65;;;41.47;;
8050;SDS011;4068;42.158;24.732;2022-12-11T02:50:38;53.58;;;27.10;;
8050;SDS011;4068;42.158;24.732;2022-12-11T02:53:10;78.85;;;38.22;;
8050;SDS011;4068;42.158;24.732;2022-12-11T02:55:37;63.70;;;31.75;;
8050;SDS011;4068;42.158;24.732;2022-12-11T02:58:07;79.32;;;42.85;;
8050;SDS011;4068;42.158;24.732;2022-12-11T03:00:40;87.82;;;43.22;;
8050;SDS011;4068;42.158;24.732;2022-12-11T03:03:05;67.07;;;32.95;;
8050;SDS011;4068;42.158;24.732;2022-12-11T03:05:31;57.20;;;30.17;;
8050;SDS011;4068;42.158;24.732;2022-12-11T03:07:57;61.97;;;31.20;;
8050;SDS011;4068;42.158;24.732;2022-12-11T03:10:22;52.55;;;28.05;;
8050;SDS011;4068;42.158;24.732;2022-12-11T03:12:49;57.42;;;28.27;;
8050;SDS011;4068;42.158;24.732;2022-12-11T03:15:18;45.63;;;22.45;;
8050;SDS011;4068;42.158;24.732;2022-12-11T03:23:32;36.88;;;18.02;;
8050;SDS011;4068;42.158;24.732;2022-12-11T03:26:04;36.55;;;17.00;;
8050;SDS011;4068;42.158;24.732;2022-12-11T03:31:22;29.80;;;13.07;;
8050;SDS011;4068;42.158;24.732;2022-12-11T03:33:53;33.30;;;14.93;;
8050;SDS011;4068;42.158;24.732;2022-12-11T03:36:26;38.33;;;15.52;;
8050;SDS011;4068;42.158;24.732;2022-12-11T03:38:57;26.88;;;14.70;;
8050;SDS011;4068;42.158;24.732;2022-12-11T03:41:26;33.92;;;14.98;;
8050;SDS011;4068;42.158;24.732;2022-12-11T03:43:55;31.30;;;12.35;;
8050;SDS011;4068;42.158;24.732;2022-12-11T03:46:24;20.77;;;9.20;;
8050;SDS011;4068;42.158;24.732;2022-12-11T03:48:55;24.20;;;11.52;;
8050;SDS011;4068;42.158;24.732;2022-12-11T03:51:25;24.25;;;11.75;;
8050;SDS011;4068;42.158;24.732;2022-12-11T03:53:52;30.23;;;13.30;;
8050;SDS011;4068;42.158;24.732;2022-12-11T03:56:20;32.83;;;13.00;;
8050;SDS011;4068;42.158;24.732;2022-12-11T03:58:46;28.00;;;12.50;;
8050;SDS011;4068;42.158;24.732;2022-12-11T04:01:11;26.95;;;12.27;;
8050;SDS011;4068;42.158;24.732;2022-12-11T04:03:37;23.83;;;13.27;;
8050;SDS011;4068;42.158;24.732;2022-12-11T04:06:03;31.27;;;13.90;;
8050;SDS011;4068;42.158;24.732;2022-12-11T04:08:29;22.25;;;12.93;;
8050;SDS011;4068;42.158;24.732;2022-12-11T04:10:54;25.25;;;13.32;;
8050;SDS011;4068;42.158;24.732;2022-12-11T04:13:38;29.70;;;15.18;;
8050;SDS011;4068;42.158;24.732;2022-12-11T04:16:04;30.42;;;15.30;;
8050;SDS011;4068;42.158;24.732;2022-12-11T04:18:30;30.63;;;13.80;;
8050;SDS011;4068;42.158;24.732;2022-12-11T04:21:15;32.28;;;15.43;;
8050;SDS011;4068;42.158;24.732;2022-12-11T04:23:59;31.73;;;14.57;;
8050;SDS011;4068;42.158;24.732;2022-12-11T04:26:39;26.58;;;14.07;;
8050;SDS011;4068;42.158;24.732;2022-12-11T04:29:05;24.38;;;13.05;;
8050;SDS011;4068;42.158;24.732;2022-12-11T04:31:31;25.15;;;12.18;;
8050;SDS011;4068;42.158;24.732;2022-12-11T04:33:56;19.10;;;9.80;;
8050;SDS011;4068;42.158;24.732;2022-12-11T04:36:22;22.08;;;12.00;;
8050;SDS011;4068;42.158;24.732;2022-12-11T04:38:47;25.48;;;11.13;;
8050;SDS011;4068;42.158;24.732;2022-12-11T04:41:13;23.50;;;9.98;;
8050;SDS011;4068;42.158;24.732;2022-12-11T04:43:40;28.40;;;11.48;;
8050;SDS011;4068;42.158;24.732;2022-12-11T04:48:36;21.50;;;9.35;;
8050;SDS011;4068;42.158;24.732;2022-12-11T04:51:02;22.20;;;10.38;;
8050;SDS011;4068;42.158;24.732;2022-12-11T04:53:28;20.08;;;9.93;;
8050;SDS011;4068;42.158;24.732;2022-12-11T04:55:54;23.92;;;10.48;;
8050;SDS011;4068;42.158;24.732;2022-12-11T04:58:19;21.95;;;10.93;;
8050;SDS011;4068;42.158;24.732;2022-12-11T05:00:45;19.05;;;9.95;;
8050;SDS011;4068;42.158;24.732;2022-12-11T05:03:11;21.65;;;9.88;;
8050;SDS011;4068;42.158;24.732;2022-12-11T05:05:37;21.13;;;11.40;;
8050;SDS011;4068;42.158;24.732;2022-12-11T05:08:02;19.13;;;9.68;;
8050;SDS011;4068;42.158;24.732;2022-12-11T05:10:28;18.10;;;9.32;;
8050;SDS011;4068;42.158;24.732;2022-12-11T05:12:54;23.67;;;10.82;;
8050;SDS011;4068;42.158;24.732;2022-12-11T05:15:19;22.10;;;10.68;;
8050;SDS011;4068;42.158;24.732;2022-12-11T05:17:45;18.65;;;8.88;;
8050;SDS011;4068;42.158;24.732;2022-12-11T05:20:10;20.60;;;10.15;;
8050;SDS011;4068;42.158;24.732;2022-12-11T05:22:36;25.05;;;11.70;;
8050;SDS011;4068;42.158;24.732;2022-12-11T05:25:03;23.13;;;12.73;;
8050;SDS011;4068;42.158;24.732;2022-12-11T05:27:29;26.40;;;12.95;;
8050;SDS011;4068;42.158;24.732;2022-12-11T05:29:55;27.38;;;13.30;;
8050;SDS011;4068;42.158;24.732;2022-12-11T05:32:20;25.13;;;12.85;;
8050;SDS011;4068;42.158;24.732;2022-12-11T05:34:45;24.17;;;11.73;;
8050;SDS011;4068;42.158;24.732;2022-12-11T05:37:11;25.45;;;11.70;;
8050;SDS011;4068;42.158;24.732;2022-12-11T05:39:37;24.50;;;12.30;;
8050;SDS011;4068;42.158;24.732;2022-12-11T05:42:02;30.10;;;14.27;;
8050;SDS011;4068;42.158;24.732;2022-12-11T05:44:28;22.65;;;12.85;;
8050;SDS011;4068;42.158;24.732;2022-12-11T05:46:54;24.98;;;13.23;;
8050;SDS011;4068;42.158;24.732;2022-12-11T05:49:19;28.35;;;12.95;;
8050;SDS011;4068;42.158;24.732;2022-12-11T05:51:45;27.02;;;13.18;;
8050;SDS011;4068;42.158;24.732;2022-12-11T05:54:11;26.13;;;13.20;;
8050;SDS011;4068;42.158;24.732;2022-12-11T05:56:37;27.13;;;13.27;;
8050;SDS011;4068;42.158;24.732;2022-12-11T05:59:03;33.60;;;15.05;;
8050;SDS011;4068;42.158;24.732;2022-12-11T06:03:56;30.45;;;15.55;;
8050;SDS011;4068;42.158;24.732;2022-12-11T06:06:23;30.92;;;15.30;;
8050;SDS011;4068;42.158;24.732;2022-12-11T06:08:50;28.60;;;15.45;;
8050;SDS011;4068;42.158;24.732;2022-12-11T06:11:19;25.30;;;14.50;;
8050;SDS011;4068;42.158;24.732;2022-12-11T06:13:45;29.15;;;15.77;;
8050;SDS011;4068;42.158;24.732;2022-12-11T06:16:11;27.73;;;15.55;;
8050;SDS011;4068;42.158;24.732;2022-12-11T06:18:37;28.63;;;13.68;;
8050;SDS011;4068;42.158;24.732;2022-12-11T06:21:14;32.47;;;14.20;;
8050;SDS011;4068;42.158;24.732;2022-12-11T06:23:44;30.45;;;13.82;;
8050;SDS011;4068;42.158;24.732;2022-12-11T06:26:11;29.58;;;14.23;;
8050;SDS011;4068;42.158;24.732;2022-12-11T06:28:37;26.15;;;14.15;;
8050;SDS011;4068;42.158;24.732;2022-12-11T06:31:03;32.13;;;15.15;;
8050;SDS011;4068;42.158;24.732;2022-12-11T06:33:29;26.77;;;14.63;;
8050;SDS011;4068;42.158;24.732;2022-12-11T06:35:55;28.13;;;14.13;;
8050;SDS011;4068;42.158;24.732;2022-12-11T06:38:21;26.75;;;14.38;;
8050;SDS011;4068;42.158;24.732;2022-12-11T06:40:53;29.85;;;14.38;;
8050;SDS011;4068;42.158;24.732;2022-12-11T06:43:20;31.17;;;14.07;;
8050;SDS011;4068;42.158;24.732;2022-12-11T06:45:45;25.98;;;14.70;;
8050;SDS011;4068;42.158;24.732;2022-12-11T06:48:11;28.65;;;14.40;;
8050;SDS011;4068;42.158;24.732;2022-12-11T06:50:36;26.92;;;13.82;;
8050;SDS011;4068;42.158;24.732;2022-12-11T06:53:02;34.20;;;15.38;;
8050;SDS011;4068;42.158;24.732;2022-12-11T06:55:28;27.40;;;14.10;;
8050;SDS011;4068;42.158;24.732;2022-12-11T06:57:53;30.25;;;14.27;;
8050;SDS011;4068;42.158;24.732;2022-12-11T07:00:19;27.08;;;13.43;;
8050;SDS011;4068;42.158;24.732;2022-12-11T07:02:44;22.77;;;13.65;;
8050;SDS011;4068;42.158;24.732;2022-12-11T07:05:10;24.75;;;13.15;;
8050;SDS011;4068;42.158;24.732;2022-12-11T07:07:36;22.10;;;12.02;;
8050;SDS011;4068;42.158;24.732;2022-12-11T07:10:02;26.15;;;15.77;;
8050;SDS011;4068;42.158;24.732;2022-12-11T07:12:28;28.85;;;13.98;;
8050;SDS011;4068;42.158;24.732;2022-12-11T07:14:54;28.38;;;14.77;;
8050;SDS011;4068;42.158;24.732;2022-12-11T07:17:19;28.15;;;14.25;;
8050;SDS011;4068;42.158;24.732;2022-12-11T07:19:44;29.08;;;14.07;;
8050;SDS011;4068;42.158;24.732;2022-12-11T07:22:10;28.33;;;14.73;;
8050;SDS011;4068;42.158;24.732;2022-12-11T07:24:35;36.10;;;15.82;;
8050;SDS011;4068;42.158;24.732;2022-12-11T07:27:01;33.75;;;16.75;;
8050;SDS011;4068;42.158;24.732;2022-12-11T07:29:26;35.80;;;16.60;;
8050;SDS011;4068;42.158;24.732;2022-12-11T07:31:52;34.17;;;18.30;;
8050;SDS011;4068;42.158;24.732;2022-12-11T07:34:17;34.88;;;17.52;;
8050;SDS011;4068;42.158;24.732;2022-12-11T07:36:42;35.25;;;17.42;;
8050;SDS011;4068;42.158;24.732;2022-12-11T07:39:10;36.35;;;17.90;;
8050;SDS011;4068;42.158;24.732;2022-12-11T07:41:36;30.23;;;18.20;;
8050;SDS011;4068;42.158;24.732;2022-12-11T07:44:02;35.83;;;18.55;;
8050;SDS011;4068;42.158;24.732;2022-12-11T07:46:29;29.65;;;16.85;;
8050;SDS011;4068;42.158;24.732;2022-12-11T07:48:55;45.10;;;19.38;;
8050;SDS011;4068;42.158;24.732;2022-12-11T07:51:32;32.28;;;18.88;;
8050;SDS011;4068;42.158;24.732;2022-12-11T07:54:00;35.80;;;18.17;;
8050;SDS011;4068;42.158;24.732;2022-12-11T07:56:29;32.83;;;17.20;;
8050;SDS011;4068;42.158;24.732;2022-12-11T07:58:57;31.58;;;16.98;;
8050;SDS011;4068;42.158;24.732;2022-12-11T08:01:28;32.65;;;16.75;;
8050;SDS011;4068;42.158;24.732;2022-12-11T08:03:55;30.20;;;16.20;;
8050;SDS011;4068;42.158;24.732;2022-12-11T08:06:38;33.13;;;17.05;;
8050;SDS011;4068;42.158;24.732;2022-12-11T08:09:05;32.00;;;16.73;;
8050;SDS011;4068;42.158;24.732;2022-12-11T08:11:32;38.67;;;14.40;;
8050;SDS011;4068;42.158;24.732;2022-12-11T08:13:58;28.75;;;14.38;;
8050;SDS011;4068;42.158;24.732;2022-12-11T08:16:24;35.72;;;14.93;;
8050;SDS011;4068;42.158;24.732;2022-12-11T08:18:50;28.65;;;13.60;;
8050;SDS011;4068;42.158;24.732;2022-12-11T08:21:20;27.10;;;13.20;;
8050;SDS011;4068;42.158;24.732;2022-12-11T08:23:47;23.25;;;12.10;;
8050;SDS011;4068;42.158;24.732;2022-12-11T08:26:14;23.65;;;12.05;;
8050;SDS011;4068;42.158;24.732;2022-12-11T08:28:42;26.90;;;13.15;;
8050;SDS011;4068;42.158;24.732;2022-12-11T08:31:08;25.52;;;14.32;;
8050;SDS011;4068;42.158;24.732;2022-12-11T08:33:36;27.48;;;14.23;;
8050;SDS011;4068;42.158;24.732;2022-12-11T08:36:03;27.90;;;15.43;;
8050;SDS011;4068;42.158;24.732;2022-12-11T08:38:31;34.00;;;15.57;;
8050;SDS011;4068;42.158;24.732;2022-12-11T08:40:57;29.35;;;16.00;;
8050;SDS011;4068;42.158;24.732;2022-12-11T08:43:22;30.80;;;14.85;;
8050;SDS011;4068;42.158;24.732;2022-12-11T08:45:47;33.40;;;16.02;;
8050;SDS011;4068;42.158;24.732;2022-12-11T08:48:13;29.17;;;14.60;;
8050;SDS011;4068;42.158;24.732;2022-12-11T08:50:38;29.60;;;13.93;;
8050;SDS011;4068;42.158;24.732;2022-12-11T08:53:04;31.17;;;13.60;;
8050;SDS011;4068;42.158;24.732;2022-12-11T08:55:31;27.30;;;13.05;;
8050;SDS011;4068;42.158;24.732;2022-12-11T08:57:57;25.25;;;12.93;;
8050;SDS011;4068;42.158;24.732;2022-12-11T09:00:26;29.27;;;14.23;;
8050;SDS011;4068;42.158;24.732;2022-12-11T09:02:51;29.85;;;13.07;;
8050;SDS011;4068;42.158;24.732;2022-12-11T09:05:17;39.20;;;16.05;;
8050;SDS011;4068;42.158;24.732;2022-12-11T09:07:42;30.67;;;13.93;;
8050;SDS011;4068;42.158;24.732;2022-12-11T09:10:08;43.15;;;13.85;;
8050;SDS011;4068;42.158;24.732;2022-12-11T09:12:34;22.20;;;10.05;;
8050;SDS011;4068;42.158;24.732;2022-12-11T09:15:00;21.77;;;11.43;;
8050;SDS011;4068;42.158;24.732;2022-12-11T09:17:25;22.58;;;9.25;;
8050;SDS011;4068;42.158;24.732;2022-12-11T09:19:51;34.58;;;9.48;;
8050;SDS011;4068;42.158;24.732;2022-12-11T09:22:16;19.30;;;8.80;;
8050;SDS011;4068;42.158;24.732;2022-12-11T09:24:42;19.60;;;8.63;;
8050;SDS011;4068;42.158;24.732;2022-12-11T09:27:07;14.63;;;7.60;;
8050;SDS011;4068;42.158;24.732;2022-12-11T09:29:33;18.42;;;7.90;;
8050;SDS011;4068;42.158;24.732;2022-12-11T09:31:58;19.55;;;7.97;;
8050;SDS011;4068;42.158;24.732;2022-12-11T09:34:24;32.60;;;8.98;;
8050;SDS011;4068;42.158;24.732;2022-12-11T09:36:49;22.33;;;9.32;;
8050;SDS011;4068;42.158;24.732;2022-12-11T09:39:15;21.40;;;8.85;;
8050;SDS011;4068;42.158;24.732;2022-12-11T09:44:33;17.02;;;7.38;;
8050;SDS011;4068;42.158;24.732;2022-12-11T09:47:11;20.35;;;7.53;;
8050;SDS011;4068;42.158;24.732;2022-12-11T09:50:02;37.45;;;9.23;;
8050;SDS011;4068;42.158;24.732;2022-12-11T09:55:19;32.47;;;9.55;;
8050;SDS011;4068;42.158;24.732;2022-12-11T10:00:36;27.48;;;9.02;;
8050;SDS011;4068;42.158;24.732;2022-12-11T10:06:01;26.17;;;8.30;;
8050;SDS011;4068;42.158;24.732;2022-12-11T10:14:19;27.40;;;7.30;;
8050;SDS011;4068;42.158;24.732;2022-12-11T10:17:01;32.88;;;10.75;;
8050;SDS011;4068;42.158;24.732;2022-12-11T10:19:37;23.67;;;7.38;;
8050;SDS011;4068;42.158;24.732;2022-12-11T10:22:07;22.70;;;7.28;;
8050;SDS011;4068;42.158;24.732;2022-12-11T10:24:42;20.75;;;8.27;;
8050;SDS011;4068;42.158;24.732;2022-12-11T10:27:21;26.70;;;7.03;;
8050;SDS011;4068;42.158;24.732;2022-12-11T10:30:33;24.40;;;6.45;;
8050;SDS011;4068;42.158;24.732;2022-12-11T10:35:44;19.55;;;9.23;;
8050;SDS011;4068;42.158;24.732;2022-12-11T10:38:12;37.50;;;8.18;;
8050;SDS011;4068;42.158;24.732;2022-12-11T10:40:43;17.27;;;5.97;;
8050;SDS011;4068;42.158;24.732;2022-12-11T10:43:13;20.77;;;6.10;;
8050;SDS011;4068;42.158;24.732;2022-12-11T10:45:48;23.30;;;6.90;;
8050;SDS011;4068;42.158;24.732;2022-12-11T10:48:18;18.17;;;5.55;;
8050;SDS011;4068;42.158;24.732;2022-12-11T10:50:43;27.25;;;7.60;;
8050;SDS011;4068;42.158;24.732;2022-12-11T10:53:36;35.50;;;7.68;;
8050;SDS011;4068;42.158;24.732;2022-12-11T10:56:04;40.22;;;8.05;;
8050;SDS011;4068;42.158;24.732;2022-12-11T10:58:31;29.15;;;6.88;;
8050;SDS011;4068;42.158;24.732;2022-12-11T11:03:28;25.13;;;8.45;;
8050;SDS011;4068;42.158;24.732;2022-12-11T11:06:01;11.85;;;6.13;;
8050;SDS011;4068;42.158;24.732;2022-12-11T11:08:36;11.77;;;5.97;;
8050;SDS011;4068;42.158;24.732;2022-12-11T11:11:04;13.98;;;5.60;;
8050;SDS011;4068;42.158;24.732;2022-12-11T11:13:29;11.85;;;5.85;;
8050;SDS011;4068;42.158;24.732;2022-12-11T11:16:03;14.52;;;6.53;;
8050;SDS011;4068;42.158;24.732;2022-12-11T11:18:30;8.45;;;4.72;;
8050;SDS011;4068;42.158;24.732;2022-12-11T11:20:57;16.30;;;6.35;;
8050;SDS011;4068;42.158;24.732;2022-12-11T11:23:25;21.55;;;5.55;;
8050;SDS011;4068;42.158;24.732;2022-12-11T11:25:53;16.85;;;6.07;;
8050;SDS011;4068;42.158;24.732;2022-12-11T11:28:46;16.23;;;7.00;;
8050;SDS011;4068;42.158;24.732;2022-12-11T11:31:12;18.50;;;7.50;;
8050;SDS011;4068;42.158;24.732;2022-12-11T11:36:20;14.23;;;6.75;;
8050;SDS011;4068;42.158;24.732;2022-12-11T11:44:18;10.43;;;6.18;;
8050;SDS011;4068;42.158;24.732;2022-12-11T11:49:54;12.82;;;5.40;;
8050;SDS011;4068;42.158;24.732;2022-12-11T11:52:36;9.23;;;4.32;;
8050;SDS011;4068;42.158;24.732;2022-12-11T11:55:19;18.70;;;5.20;;
8050;SDS011;4068;42.158;24.732;2022-12-11T11:58:00;12.60;;;4.82;;
8050;SDS011;4068;42.158;24.732;2022-12-11T12:00:31;16.30;;;4.90;;
8050;SDS011;4068;42.158;24.732;2022-12-11T12:02:58;10.80;;;4.45;;
8050;SDS011;4068;42.158;24.732;2022-12-11T12:05:34;15.18;;;5.30;;
8050;SDS011;4068;42.158;24.732;2022-12-11T12:13:21;18.20;;;5.22;;
8050;SDS011;4068;42.158;24.732;2022-12-11T12:18:34;14.45;;;4.95;;
8050;SDS011;4068;42.158;24.732;2022-12-11T12:27:12;23.08;;;6.80;;
8050;SDS011;4068;42.158;24.732;2022-12-11T12:29:54;11.18;;;4.30;;
8050;SDS011;4068;42.158;24.732;2022-12-11T12:40:27;16.75;;;6.25;;
8050;SDS011;4068;42.158;24.732;2022-12-11T12:48:14;12.95;;;5.53;;
8050;SDS011;4068;42.158;24.732;2022-12-11T12:50:43;13.00;;;5.97;;
8050;SDS011;4068;42.158;24.732;2022-12-11T12:53:17;11.85;;;6.78;;
8050;SDS011;4068;42.158;24.732;2022-12-11T12:55:45;25.70;;;8.30;;
8050;SDS011;4068;42.158;24.732;2022-12-11T12:58:29;24.63;;;8.82;;
8050;SDS011;4068;42.158;24.732;2022-12-11T13:01:05;19.38;;;7.10;;
8050;SDS011;4068;42.158;24.732;2022-12-11T13:06:39;20.30;;;7.65;;
8050;SDS011;4068;42.158;24.732;2022-12-11T13:11:49;20.98;;;7.38;;
8050;SDS011;4068;42.158;24.732;2022-12-11T13:16:46;15.73;;;7.05;;
8050;SDS011;4068;42.158;24.732;2022-12-11T13:22:01;15.45;;;6.95;;
8050;SDS011;4068;42.158;24.732;2022-12-11T13:24:31;16.05;;;8.05;;
8050;SDS011;4068;42.158;24.732;2022-12-11T13:27:07;24.05;;;7.25;;
8050;SDS011;4068;42.158;24.732;2022-12-11T13:29:37;11.32;;;6.82;;
8050;SDS011;4068;42.158;24.732;2022-12-11T13:32:18;16.38;;;9.40;;
8050;SDS011;4068;42.158;24.732;2022-12-11T13:34:51;25.08;;;9.40;;
8050;SDS011;4068;42.158;24.732;2022-12-11T13:37:28;17.45;;;7.85;;
8050;SDS011;4068;42.158;24.732;2022-12-11T13:39:58;19.23;;;6.97;;
8050;SDS011;4068;42.158;24.732;2022-12-11T13:42:32;16.52;;;6.45;;
8050;SDS011;4068;42.158;24.732;2022-12-11T13:45:01;20.48;;;7.22;;
8050;SDS011;4068;42.158;24.732;2022-12-11T13:47:28;13.93;;;6.85;;
8050;SDS011;4068;42.158;24.732;2022-12-11T13:50:10;24.85;;;9.20;;
8050;SDS011;4068;42.158;24.732;2022-12-11T13:52:51;17.00;;;9.45;;
8050;SDS011;4068;42.158;24.732;2022-12-11T13:55:29;24.73;;;10.50;;
8050;SDS011;4068;42.158;24.732;2022-12-11T13:57:56;29.00;;;11.32;;
8050;SDS011;4068;42.158;24.732;2022-12-11T14:00:23;24.45;;;10.43;;
8050;SDS011;4068;42.158;24.732;2022-12-11T14:02:50;25.92;;;11.65;;
8050;SDS011;4068;42.158;24.732;2022-12-11T14:05:19;23.38;;;11.05;;
8050;SDS011;4068;42.158;24.732;2022-12-11T14:07:49;28.95;;;11.35;;
8050;SDS011;4068;42.158;24.732;2022-12-11T14:12:52;28.20;;;10.70;;
8050;SDS011;4068;42.158;24.732;2022-12-11T14:15:21;23.50;;;10.93;;
8050;SDS011;4068;42.158;24.732;2022-12-11T14:17:47;22.80;;;11.82;;
8050;SDS011;4068;42.158;24.732;2022-12-11T14:20:15;26.02;;;9.90;;
8050;SDS011;4068;42.158;24.732;2022-12-11T14:22:43;26.63;;;10.48;;
8050;SDS011;4068;42.158;24.732;2022-12-11T14:25:23;17.70;;;8.60;;
8050;SDS011;4068;42.158;24.732;2022-12-11T14:27:52;27.80;;;10.90;;
8050;SDS011;4068;42.158;24.732;2022-12-11T14:30:20;37.92;;;15.70;;
8050;SDS011;4068;42.158;24.732;2022-12-11T14:32:46;21.00;;;10.85;;
8050;SDS011;4068;42.158;24.732;2022-12-11T14:35:31;14.95;;;8.57;;
8050;SDS011;4068;42.158;24.732;2022-12-11T14:38:01;16.30;;;7.63;;
8050;SDS011;4068;42.158;24.732;2022-12-11T14:40:36;18.88;;;8.40;;
8050;SDS011;4068;42.158;24.732;2022-12-11T14:43:11;14.80;;;7.22;;
8050;SDS011;4068;42.158;24.732;2022-12-11T14:45:46;11.77;;;5.53;;
8050;SDS011;4068;42.158;24.732;2022-12-11T14:48:18;8.75;;;3.80;;
8050;SDS011;4068;42.158;24.732;2022-12-11T14:50:48;10.85;;;3.60;;
8050;SDS011;4068;42.158;24.732;2022-12-11T14:53:21;4.75;;;3.30;;
8050;SDS011;4068;42.158;24.732;2022-12-11T14:55:50;7.55;;;4.35;;
8050;SDS011;4068;42.158;24.732;2022-12-11T14:58:20;2.67;;;2.25;;
8050;SDS011;4068;42.158;24.732;2022-12-11T15:00:57;4.05;;;2.40;;
8050;SDS011;4068;42.158;24.732;2022-12-11T15:06:02;2.50;;;2.28;;
8050;SDS011;4068;42.158;24.732;2022-12-11T15:08:45;4.57;;;2.60;;
8050;SDS011;4068;42.158;24.732;2022-12-11T15:11:11;2.47;;;2.28;;
8050;SDS011;4068;42.158;24.732;2022-12-11T15:13:48;4.28;;;2.72;;
8050;SDS011;4068;42.158;24.732;2022-12-11T15:16:23;3.40;;;2.33;;
8050;SDS011;4068;42.158;24.732;2022-12-11T15:18:51;3.72;;;2.60;;
8050;SDS011;4068;42.158;24.732;2022-12-11T15:21:18;5.82;;;2.28;;
8050;SDS011;4068;42.158;24.732;2022-12-11T15:23:56;2.83;;;2.15;;
8050;SDS011;4068;42.158;24.732;2022-12-11T15:26:33;4.28;;;3.03;;
8050;SDS011;4068;42.158;24.732;2022-12-11T15:29:02;7.35;;;3.80;;
8050;SDS011;4068;42.158;24.732;2022-12-11T15:31:31;7.47;;;3.63;;
8050;SDS011;4068;42.158;24.732;2022-12-11T15:33:59;5.22;;;3.53;;
8050;SDS011;4068;42.158;24.732;2022-12-11T15:36:29;4.57;;;2.78;;
8050;SDS011;4068;42.158;24.732;2022-12-11T15:38:55;2.70;;;2.50;;
8050;SDS011;4068;42.158;24.732;2022-12-11T15:41:21;8.15;;;3.45;;
8050;SDS011;4068;42.158;24.732;2022-12-11T15:43:52;5.43;;;2.78;;
8050;SDS011;4068;42.158;24.732;2022-12-11T15:46:20;2.83;;;2.35;;
8050;SDS011;4068;42.158;24.732;2022-12-11T15:48:46;6.40;;;2.47;;
8050;SDS011;4068;42.158;24.732;2022-12-11T15:51:12;6.13;;;2.83;;
8050;SDS011;4068;42.158;24.732;2022-12-11T15:53:38;4.95;;;3.20;;
8050;SDS011;4068;42.158;24.732;2022-12-11T15:56:04;7.35;;;3.83;;
8050;SDS011;4068;42.158;24.732;2022-12-11T15:58:30;8.10;;;3.63;;
8050;SDS011;4068;42.158;24.732;2022-12-11T16:00:56;5.70;;;3.13;;
8050;SDS011;4068;42.158;24.732;2022-12-11T16:03:23;5.78;;;2.78;;
8050;SDS011;4068;42.158;24.732;2022-12-11T16:05:49;4.85;;;2.97;;
8050;SDS011;4068;42.158;24.732;2022-12-11T16:08:17;4.75;;;3.10;;
8050;SDS011;4068;42.158;24.732;2022-12-11T16:10:45;4.43;;;3.20;;
8050;SDS011;4068;42.158;24.732;2022-12-11T16:13:11;4.00;;;2.72;;
8050;SDS011;4068;42.158;24.732;2022-12-11T16:15:38;4.05;;;3.13;;
8050;SDS011;4068;42.158;24.732;2022-12-11T16:18:07;2.97;;;2.67;;
8050;SDS011;4068;42.158;24.732;2022-12-11T16:20:42;5.22;;;2.75;;
8050;SDS011;4068;42.158;24.732;2022-12-11T16:23:08;3.95;;;2.58;;
8050;SDS011;4068;42.158;24.732;2022-12-11T16:25:38;4.97;;;3.10;;
8050;SDS011;4068;42.158;24.732;2022-12-11T16:28:06;3.15;;;2.85;;
8050;SDS011;4068;42.158;24.732;2022-12-11T16:30:33;3.58;;;2.65;;
8050;SDS011;4068;42.158;24.732;2022-12-11T16:33:00;3.25;;;2.90;;
8050;SDS011;4068;42.158;24.732;2022-12-11T16:35:25;6.43;;;3.72;;